createdAt,value
2018-09-22T00:00:59.261Z,1.87
2018-09-22T00:03:27.966Z,1.93
2018-09-22T00:05:56.734Z,2.13
2018-09-22T00:08:25.330Z,1.90
2018-09-22T00:10:53.978Z,1.80
2018-09-22T00:13:22.691Z,1.77
2018-09-22T00:15:51.231Z,1.90
2018-09-22T00:18:19.779Z,2.20
2018-09-22T00:20:48.313Z,1.87
2018-09-22T00:23:18.727Z,1.67
2018-09-22T00:25:47.606Z,2.20
2018-09-22T00:28:16.534Z,1.50
2018-09-22T00:30:45.501Z,1.63
2018-09-22T00:33:14.576Z,2.00
2018-09-22T00:35:43.157Z,1.80
2018-09-22T00:38:12.118Z,1.70
2018-09-22T00:40:40.796Z,1.90
2018-09-22T00:43:09.367Z,1.60
2018-09-22T00:45:39.263Z,2.03
2018-09-22T00:48:07.917Z,1.60
2018-09-22T00:50:36.926Z,1.70
2018-09-22T00:53:05.649Z,2.27
2018-09-22T00:55:34.256Z,1.83
2018-09-22T00:58:03.137Z,1.77
2018-09-22T01:00:31.955Z,1.87
2018-09-22T01:03:00.820Z,1.80
2018-09-22T01:05:29.407Z,1.83
2018-09-22T01:07:58.073Z,1.60
2018-09-22T01:10:26.639Z,1.90
2018-09-22T01:12:55.236Z,1.43
2018-09-22T01:15:23.785Z,1.97
2018-09-22T01:17:52.291Z,1.90
2018-09-22T01:20:20.837Z,1.87
2018-09-22T01:22:49.380Z,1.70
2018-09-22T01:25:17.970Z,2.10
2018-09-22T01:27:46.661Z,1.53
2018-09-22T01:30:15.281Z,1.70
2018-09-22T01:32:43.928Z,1.70
2018-09-22T01:35:12.493Z,2.10
2018-09-22T01:37:41.038Z,2.13
2018-09-22T01:40:09.636Z,1.70
2018-09-22T01:42:38.162Z,2.57
2018-09-22T01:45:06.839Z,2.23
2018-09-22T01:47:35.494Z,2.30
2018-09-22T01:50:04.292Z,2.37
2018-09-22T01:52:32.948Z,2.23
2018-09-22T01:55:01.518Z,2.60
2018-09-22T01:57:30.222Z,2.20
2018-09-22T01:59:58.808Z,2.27
2018-09-22T02:02:28.334Z,2.50
2018-09-22T02:04:57.003Z,2.40
2018-09-22T02:07:25.598Z,2.13
2018-09-22T02:09:54.899Z,2.27
2018-09-22T02:12:23.882Z,2.13
2018-09-22T02:14:52.636Z,2.37
2018-09-22T02:17:21.561Z,2.17
2018-09-22T02:19:50.739Z,2.20
2018-09-22T02:22:19.311Z,2.40
2018-09-22T02:24:47.944Z,2.17
2018-09-22T02:27:16.502Z,2.40
2018-09-22T02:29:45.445Z,2.10
2018-09-22T02:32:14.929Z,2.17
2018-09-22T02:34:43.605Z,2.17
2018-09-22T02:37:12.453Z,2.80
2018-09-22T02:39:41.033Z,2.77
2018-09-22T02:42:09.926Z,2.80
2018-09-22T02:44:38.915Z,2.63
2018-09-22T02:47:07.705Z,2.70
2018-09-22T02:49:37.238Z,2.80
2018-09-22T02:52:06.251Z,2.47
2018-09-22T02:54:35.012Z,2.80
2018-09-22T02:57:03.596Z,2.67
2018-09-22T02:59:33.023Z,2.97
2018-09-22T03:02:01.657Z,2.63
2018-09-22T03:04:30.540Z,3.23
2018-09-22T03:06:59.112Z,2.70
2018-09-22T03:09:28.128Z,2.60
2018-09-22T03:11:56.716Z,2.70
2018-09-22T03:14:25.846Z,2.33
2018-09-22T03:16:54.438Z,2.73
2018-09-22T03:19:23.233Z,2.30
2018-09-22T03:21:52.356Z,2.63
2018-09-22T03:24:21.130Z,2.50
2018-09-22T03:26:49.781Z,2.60
2018-09-22T03:29:18.438Z,2.40
2018-09-22T03:31:47.023Z,2.20
2018-09-22T03:34:15.569Z,2.30
2018-09-22T03:36:44.259Z,2.60
2018-09-22T03:39:12.771Z,2.67
2018-09-22T03:41:41.324Z,2.47
2018-09-22T03:44:10.408Z,2.50
2018-09-22T03:46:39.033Z,2.57
2018-09-22T03:49:07.680Z,2.60
2018-09-22T03:51:36.274Z,2.80
2018-09-22T03:54:04.799Z,2.33
2018-09-22T03:56:33.643Z,2.47
2018-09-22T03:59:02.245Z,2.47
2018-09-22T04:01:30.788Z,2.73
2018-09-22T04:03:59.380Z,2.70
2018-09-22T04:06:27.967Z,3.20
2018-09-22T04:08:56.508Z,2.80
2018-09-22T04:11:25.017Z,2.80
2018-09-22T04:13:53.566Z,2.77
2018-09-22T04:16:22.253Z,2.70
2018-09-22T04:18:50.842Z,2.60
2018-09-22T04:21:19.548Z,2.87
2018-09-22T04:23:48.134Z,2.87
2018-09-22T04:26:16.675Z,2.90
2018-09-22T04:28:45.615Z,2.53
2018-09-22T04:31:14.207Z,2.70
2018-09-22T04:33:42.782Z,2.83
2018-09-22T04:36:11.382Z,2.70
2018-09-22T04:38:39.948Z,2.50
2018-09-22T04:41:08.475Z,2.37
2018-09-22T04:43:37.050Z,2.30
2018-09-22T04:46:05.639Z,2.20
2018-09-22T04:48:34.158Z,2.20
2018-09-22T04:51:02.928Z,2.40
2018-09-22T04:53:31.468Z,2.00
2018-09-22T04:56:00.119Z,2.40
2018-09-22T04:58:28.675Z,2.30
2018-09-22T05:00:57.250Z,1.90
2018-09-22T05:03:25.807Z,1.90
2018-09-22T05:05:54.306Z,2.00
2018-09-22T05:08:22.988Z,1.90
2018-09-22T05:10:51.669Z,1.90
2018-09-22T05:13:20.374Z,2.10
2018-09-22T05:15:48.956Z,2.10
2018-09-22T05:18:17.524Z,1.97
2018-09-22T05:20:46.122Z,2.27
2018-09-22T05:23:14.689Z,1.87
2018-09-22T05:25:43.338Z,2.20
2018-09-22T05:28:11.889Z,2.20
2018-09-22T05:30:40.479Z,2.13
2018-09-22T05:33:09.010Z,2.57
2018-09-22T05:35:37.864Z,1.80
2018-09-22T05:38:06.467Z,2.63
2018-09-22T05:40:35.076Z,2.47
2018-09-22T05:43:03.616Z,2.50
2018-09-22T05:45:32.226Z,2.50
2018-09-22T05:48:01.218Z,2.70
2018-09-22T05:50:30.030Z,2.60
2018-09-22T05:52:58.723Z,2.60
2018-09-22T05:55:27.250Z,2.83
2018-09-22T05:57:56.094Z,2.43
2018-09-22T06:00:25.216Z,3.10
2018-09-22T06:02:53.949Z,2.63
2018-09-22T06:05:22.488Z,2.40
2018-09-22T06:07:51.056Z,2.63
2018-09-22T06:10:20.400Z,2.60
2018-09-22T06:12:48.980Z,2.70
2018-09-22T06:15:18.053Z,2.53
2018-09-22T06:17:47.454Z,2.70
2018-09-22T06:20:16.376Z,3.10
2018-09-22T06:22:44.952Z,2.60
2018-09-22T06:25:13.729Z,3.07
2018-09-22T06:27:42.442Z,2.80
2018-09-22T06:30:10.960Z,2.97
2018-09-22T06:32:39.477Z,2.77
2018-09-22T06:35:08.304Z,2.43
2018-09-22T06:37:36.952Z,2.90
2018-09-22T06:40:05.745Z,2.77
2018-09-22T06:42:34.616Z,2.90
2018-09-22T06:45:03.496Z,2.70
2018-09-22T06:47:32.238Z,2.60
2018-09-22T06:50:00.894Z,2.70
2018-09-22T06:52:29.433Z,3.17
2018-09-22T06:54:58.285Z,2.50
2018-09-22T06:57:26.964Z,2.60
2018-09-22T06:59:55.533Z,2.80
2018-09-22T07:02:24.102Z,2.60
2018-09-22T07:04:53.114Z,2.37
2018-09-22T07:07:21.700Z,2.57
2018-09-22T07:09:50.421Z,2.50
2018-09-22T07:12:18.969Z,2.20
2018-09-22T07:14:47.533Z,2.27
2018-09-22T07:17:16.136Z,2.60
2018-09-22T07:19:45.798Z,2.30
2018-09-22T07:22:19.675Z,2.40
2018-09-22T07:24:48.977Z,2.53
2018-09-22T07:27:17.517Z,2.30
2018-09-22T07:29:46.328Z,2.40
2018-09-22T07:32:15.054Z,3.37
2018-09-22T07:34:43.742Z,2.40
2018-09-22T07:37:12.650Z,2.53
2018-09-22T07:39:41.317Z,2.77
2018-09-22T07:42:10.007Z,2.37
2018-09-22T07:44:39.050Z,2.90
2018-09-22T07:47:08.334Z,2.70
2018-09-22T07:49:37.254Z,2.97
2018-09-22T07:52:05.878Z,2.60
2018-09-22T07:54:35.073Z,2.63
2018-09-22T07:57:03.674Z,2.60
2018-09-22T07:59:32.529Z,2.97
2018-09-22T08:02:01.077Z,2.83
2018-09-22T08:04:29.902Z,2.80
2018-09-22T08:06:58.816Z,2.63
2018-09-22T08:09:27.396Z,2.77
2018-09-22T08:11:56.157Z,2.70
2018-09-22T08:14:24.744Z,2.63
2018-09-22T08:16:53.620Z,2.30
2018-09-22T08:19:22.154Z,2.50
2018-09-22T08:21:50.827Z,2.50
2018-09-22T08:24:19.492Z,2.60
2018-09-22T08:26:48.210Z,2.60
2018-09-22T08:29:16.899Z,3.10
2018-09-22T08:31:46.226Z,2.43
2018-09-22T08:34:14.870Z,2.13
2018-09-22T08:36:43.578Z,2.43
2018-09-22T08:39:12.868Z,2.43
2018-09-22T08:41:42.168Z,2.77
2018-09-22T08:44:10.783Z,2.73
2018-09-22T08:46:39.383Z,2.43
2018-09-22T08:49:08.368Z,2.50
2018-09-22T08:51:37.715Z,2.13
2018-09-22T08:54:06.311Z,2.30
2018-09-22T08:56:34.902Z,2.57
2018-09-22T08:59:03.734Z,2.40
2018-09-22T09:01:32.324Z,2.40
2018-09-22T09:04:00.893Z,2.33
2018-09-22T09:06:29.479Z,2.60
2018-09-22T09:08:58.102Z,2.67
2018-09-22T09:11:27.449Z,2.20
2018-09-22T09:13:56.192Z,2.77
2018-09-22T09:16:24.756Z,2.37
2018-09-22T09:18:53.415Z,2.30
2018-09-22T09:21:22.041Z,2.40
2018-09-22T09:23:50.593Z,2.30
2018-09-22T09:26:19.360Z,2.63
2018-09-22T09:28:48.420Z,1.77
2018-09-22T09:31:19.034Z,1.90
2018-09-22T09:33:48.744Z,2.00
2018-09-22T09:36:17.490Z,2.07
2018-09-22T09:38:46.473Z,2.07
2018-09-22T09:41:15.067Z,1.90
2018-09-22T09:43:43.863Z,1.80
2018-09-22T09:46:12.436Z,2.10
2018-09-22T09:48:41.006Z,1.70
2018-09-22T09:51:09.552Z,1.97
2018-09-22T09:53:38.618Z,1.43
2018-09-22T09:56:07.326Z,1.90
2018-09-22T09:58:35.872Z,1.87
2018-09-22T10:01:04.453Z,1.50
2018-09-22T10:03:33.110Z,1.60
2018-09-22T10:06:01.612Z,1.90
2018-09-22T10:08:30.182Z,1.43
2018-09-22T10:10:58.836Z,1.60
2018-09-22T10:13:27.434Z,1.50
2018-09-22T10:15:55.968Z,1.80
2018-09-22T10:18:24.925Z,1.50
2018-09-22T10:20:53.814Z,1.60
2018-09-22T10:23:22.349Z,1.53
2018-09-22T10:25:51.102Z,1.70
2018-09-22T10:28:19.703Z,1.97
2018-09-22T10:30:48.495Z,2.10
2018-09-22T10:33:17.105Z,1.77
2018-09-22T10:35:45.803Z,1.93
2018-09-22T10:38:14.792Z,2.00
2018-09-22T10:40:43.781Z,1.87
2018-09-22T10:43:12.445Z,1.80
2018-09-22T10:45:41.037Z,2.00
2018-09-22T10:48:09.630Z,1.90
2018-09-22T10:50:38.214Z,1.87
2018-09-22T10:53:07.423Z,1.90
2018-09-22T10:55:35.866Z,1.83
2018-09-22T10:58:04.572Z,2.60
2018-09-22T11:00:33.168Z,1.80
2018-09-22T11:03:02.266Z,2.23
2018-09-22T11:05:30.973Z,2.80
2018-09-22T11:07:59.753Z,3.90
2018-09-22T11:10:28.364Z,2.63
2018-09-22T11:12:56.991Z,3.20
2018-09-22T11:15:25.765Z,2.27
2018-09-22T11:17:54.453Z,1.90
2018-09-22T11:20:23.743Z,2.10
2018-09-22T11:22:52.327Z,2.30
2018-09-22T11:25:21.420Z,2.63
2018-09-22T11:27:51.332Z,2.20
2018-09-22T11:30:19.954Z,2.20
2018-09-22T11:32:48.748Z,2.13
2018-09-22T11:35:18.955Z,2.07
2018-09-22T11:37:48.434Z,2.03
2018-09-22T11:40:17.215Z,2.30
2018-09-22T11:42:45.902Z,2.80
2018-09-22T11:45:14.543Z,2.13
2018-09-22T11:47:43.492Z,1.90
2018-09-22T11:50:12.098Z,2.30
2018-09-22T11:52:40.731Z,2.30
2018-09-22T11:55:09.286Z,2.63
2018-09-22T11:57:38.271Z,2.07
2018-09-22T12:00:07.257Z,2.20
2018-09-22T12:02:35.841Z,2.07
2018-09-22T12:05:04.692Z,2.20
2018-09-22T12:07:33.560Z,2.00
2018-09-22T12:10:02.150Z,2.50
2018-09-22T12:12:31.010Z,2.80
2018-09-22T12:15:00.044Z,2.63
2018-09-22T12:17:28.580Z,2.40
2018-09-22T12:19:57.262Z,2.30
2018-09-22T12:22:25.785Z,2.33
2018-09-22T12:24:54.390Z,2.00
2018-09-22T12:27:23.049Z,2.03
2018-09-22T12:29:51.930Z,2.23
2018-09-22T12:32:20.536Z,2.10
2018-09-22T12:34:49.154Z,2.47
2018-09-22T12:37:18.412Z,2.50
2018-09-22T12:39:47.203Z,2.40
2018-09-22T12:42:15.892Z,2.00
2018-09-22T12:44:45.484Z,2.00
2018-09-22T12:47:14.102Z,1.87
2018-09-22T12:49:42.741Z,2.17
2018-09-22T12:52:11.603Z,1.77
2018-09-22T12:54:40.196Z,2.07
2018-09-22T12:57:08.916Z,1.87
2018-09-22T12:59:37.484Z,1.60
2018-09-22T13:02:06.093Z,2.03
2018-09-22T13:04:34.656Z,1.80
2018-09-22T13:07:03.629Z,1.80
2018-09-22T13:09:32.257Z,1.53
2018-09-22T13:12:00.829Z,2.10
2018-09-22T13:14:29.700Z,1.80
2018-09-22T13:16:58.533Z,2.00
2018-09-22T13:19:27.150Z,2.17
2018-09-22T13:21:56.218Z,2.10
2018-09-22T13:24:25.012Z,1.97
2018-09-22T13:26:54.086Z,2.10
2018-09-22T13:29:22.606Z,2.20
2018-09-22T13:31:51.265Z,2.03
2018-09-22T13:34:19.835Z,2.10
2018-09-22T13:36:48.791Z,2.00
2018-09-22T13:39:18.250Z,1.97
2018-09-22T13:41:47.535Z,2.27
2018-09-22T13:44:16.175Z,2.07
2018-09-22T13:46:44.937Z,2.10
2018-09-22T13:49:13.745Z,2.20
2018-09-22T13:51:42.747Z,2.30
2018-09-22T13:54:11.333Z,2.10
2018-09-22T13:56:40.116Z,2.00
2018-09-22T13:59:09.104Z,2.30
2018-09-22T14:01:37.705Z,1.90
2018-09-22T14:04:06.541Z,2.20
2018-09-22T14:06:35.770Z,2.10
2018-09-22T14:09:06.626Z,2.10
2018-09-22T14:11:35.232Z,2.20
2018-09-22T14:14:03.874Z,2.07
2018-09-22T14:16:32.578Z,2.20
2018-09-22T14:19:01.468Z,1.97
2018-09-22T14:21:30.339Z,2.00
2018-09-22T14:23:58.906Z,2.17
2018-09-22T14:26:27.465Z,2.30
2018-09-22T14:28:56.160Z,2.50
2018-09-22T14:31:24.870Z,2.60
2018-09-22T14:33:53.732Z,2.40
2018-09-22T14:36:23.348Z,2.13
2018-09-22T14:38:52.334Z,2.30
2018-09-22T14:41:21.493Z,2.40
2018-09-22T14:43:50.294Z,2.80
2018-09-22T14:46:19.649Z,2.40
2018-09-22T14:48:48.189Z,2.63
2018-09-22T14:51:17.083Z,2.20
2018-09-22T14:53:45.735Z,2.07
2018-09-22T14:56:14.786Z,2.17
2018-09-22T14:58:43.479Z,2.60
2018-09-22T15:01:12.026Z,2.00
2018-09-22T15:03:40.766Z,2.20
2018-09-22T15:06:09.357Z,1.80
2018-09-22T15:08:38.129Z,1.90
2018-09-22T15:11:06.754Z,2.00
2018-09-22T15:13:35.622Z,2.00
2018-09-22T15:16:04.353Z,1.83
2018-09-22T15:18:32.911Z,2.10
2018-09-22T15:21:01.479Z,1.97
2018-09-22T15:23:30.126Z,1.90
2018-09-22T15:25:58.905Z,1.90
2018-09-22T15:28:27.527Z,1.83
2018-09-22T15:30:56.151Z,2.00
2018-09-22T15:33:25.002Z,1.70
2018-09-22T15:35:53.691Z,1.70
2018-09-22T15:38:22.359Z,1.70
2018-09-22T15:40:50.945Z,2.00
2018-09-22T15:43:19.501Z,2.13
2018-09-22T15:45:48.050Z,1.60
2018-09-22T15:48:16.876Z,2.00
2018-09-22T15:50:45.954Z,1.90
2018-09-22T15:53:14.747Z,2.20
2018-09-22T15:55:43.416Z,1.80
2018-09-22T15:58:11.984Z,1.90
2018-09-22T16:00:40.569Z,2.10
2018-09-22T16:03:09.163Z,1.90
2018-09-22T16:05:37.764Z,2.20
2018-09-22T16:08:06.415Z,1.90
2018-09-22T16:10:35.284Z,2.50
2018-09-22T16:13:03.802Z,2.10
2018-09-22T16:15:32.352Z,2.30
2018-09-22T16:18:00.910Z,2.10
2018-09-22T16:20:29.464Z,2.07
2018-09-22T16:22:58.019Z,2.20
2018-09-22T16:25:26.591Z,2.57
2018-09-22T16:27:55.198Z,2.10
2018-09-22T16:30:23.912Z,2.20
2018-09-22T16:32:52.792Z,2.33
2018-09-22T16:35:21.364Z,2.97
2018-09-22T16:37:49.966Z,2.43
2018-09-22T16:40:18.557Z,2.70
2018-09-22T16:42:47.450Z,3.70
2018-09-22T16:45:16.020Z,2.93
2018-09-22T16:47:44.837Z,3.00
2018-09-22T16:50:13.619Z,3.03
2018-09-22T16:52:42.475Z,2.90
2018-09-22T16:55:11.467Z,3.77
2018-09-22T16:57:40.060Z,3.90
2018-09-22T17:00:08.890Z,3.87
2018-09-22T17:02:37.686Z,3.97
2018-09-22T17:05:06.394Z,4.07
2018-09-22T17:07:35.071Z,4.17
2018-09-22T17:10:03.855Z,4.20
2018-09-22T17:12:32.676Z,3.80
2018-09-22T17:15:01.419Z,4.07
2018-09-22T17:17:30.469Z,3.90
2018-09-22T17:19:59.401Z,4.30
2018-09-22T17:22:28.142Z,3.47
2018-09-22T17:24:56.705Z,3.60
2018-09-22T17:27:25.649Z,3.40
2018-09-22T17:29:54.338Z,1.07
2018-09-22T17:32:22.998Z,0.10
2018-09-22T17:34:51.587Z,0.10
2018-09-22T17:37:20.267Z,0.10
2018-09-22T17:39:49.121Z,0.10
2018-09-22T17:42:17.800Z,0.10
2018-09-22T17:44:46.667Z,0.10
2018-09-22T17:47:15.237Z,0.10
2018-09-22T17:49:44.178Z,1.33
2018-09-22T17:52:12.979Z,0.10
2018-09-22T17:54:41.962Z,0.10
2018-09-22T17:57:10.816Z,0.10
2018-09-22T17:59:39.424Z,0.10
2018-09-22T18:02:08.346Z,0.10
2018-09-22T18:04:37.000Z,0.10
2018-09-22T18:07:06.114Z,0.10
2018-09-22T18:09:34.756Z,0.10
2018-09-22T18:12:03.331Z,1.10
2018-09-22T18:14:32.595Z,0.10
2018-09-22T18:17:01.167Z,0.10
2018-09-22T18:19:30.099Z,0.10
2018-09-22T18:21:58.958Z,0.10
2018-09-22T18:24:27.712Z,0.10
2018-09-22T18:26:56.346Z,0.10
2018-09-22T18:29:25.166Z,0.10
2018-09-22T18:31:54.193Z,0.30
2018-09-22T18:34:23.295Z,0.20
2018-09-22T18:36:51.876Z,0.10
2018-09-22T18:39:20.512Z,0.10
2018-09-22T18:41:49.315Z,0.10
2018-09-22T18:44:18.168Z,0.10
2018-09-22T18:46:47.054Z,0.10
2018-09-22T18:49:15.624Z,0.10
2018-09-22T18:51:44.353Z,0.10
2018-09-22T18:54:13.048Z,0.10
2018-09-22T18:56:41.693Z,0.10
2018-09-22T18:59:10.394Z,0.10
2018-09-22T19:01:38.984Z,0.10
2018-09-22T19:04:07.574Z,0.73
2018-09-22T19:06:36.129Z,0.10
2018-09-22T19:09:07.095Z,0.10
2018-09-22T19:11:35.626Z,0.10
2018-09-22T19:14:10.261Z,0.10
2018-09-22T19:16:42.720Z,0.10
2018-09-22T19:19:14.583Z,0.50
2018-09-22T19:21:52.869Z,0.10
2018-09-22T19:24:39.084Z,0.10
2018-09-22T19:27:18.509Z,0.10
2018-09-22T19:30:06.414Z,0.73
2018-09-22T19:32:39.024Z,0.10
2018-09-22T19:35:18.054Z,0.10
2018-09-22T19:37:51.337Z,3.03
2018-09-22T19:40:24.753Z,0.10
2018-09-22T19:42:57.428Z,0.10
2018-09-22T19:45:32.868Z,0.10
2018-09-22T19:48:12.944Z,0.00
2018-09-22T19:50:45.466Z,0.83
2018-09-22T19:53:14.446Z,0.10
2018-09-22T19:55:43.187Z,0.10
2018-09-22T19:58:11.907Z,0.10
2018-09-22T20:00:40.635Z,0.10
2018-09-22T20:03:09.281Z,0.10
2018-09-22T20:05:37.807Z,0.10
2018-09-22T20:08:06.429Z,0.10
2018-09-22T20:10:35.203Z,0.10
2018-09-22T20:13:03.820Z,0.10
2018-09-22T20:15:32.504Z,0.20
2018-09-22T20:18:01.045Z,0.10
2018-09-22T20:20:29.933Z,1.17
2018-09-22T20:22:58.725Z,0.10
2018-09-22T20:25:27.290Z,0.10
2018-09-22T20:27:55.823Z,0.43
2018-09-22T20:30:24.528Z,0.10
2018-09-22T20:32:53.284Z,0.10
2018-09-22T20:35:21.843Z,0.10
2018-09-22T20:37:50.501Z,0.10
2018-09-22T20:40:19.026Z,0.10
2018-09-22T20:42:47.630Z,0.10
2018-09-22T20:45:16.211Z,0.10
2018-09-22T20:47:44.797Z,0.10
2018-09-22T20:50:13.319Z,0.10
2018-09-22T20:52:42.139Z,0.10
2018-09-22T20:55:11.006Z,0.30
2018-09-22T20:57:39.792Z,0.10
2018-09-22T21:00:09.519Z,0.73
2018-09-22T21:02:38.595Z,0.10
2018-09-22T21:05:07.250Z,0.10
2018-09-22T21:07:36.351Z,0.10
2018-09-22T21:10:05.405Z,0.10
2018-09-22T21:12:33.961Z,0.10
2018-09-22T21:15:02.681Z,0.20
2018-09-22T21:17:31.825Z,0.10
2018-09-22T21:20:00.383Z,0.17
2018-09-22T21:22:28.985Z,0.10
2018-09-22T21:24:57.957Z,0.10
2018-09-22T21:27:26.661Z,0.10
2018-09-22T21:29:55.206Z,0.10
2018-09-22T21:32:23.772Z,0.10
2018-09-22T21:34:52.305Z,0.10
2018-09-22T21:37:21.165Z,0.73
2018-09-22T21:39:49.733Z,0.10
2018-09-22T21:42:18.259Z,0.10
2018-09-22T21:44:46.858Z,0.30
2018-09-22T21:47:15.457Z,0.10
2018-09-22T21:49:43.987Z,0.50
2018-09-22T21:52:12.533Z,0.20
2018-09-22T21:54:41.326Z,0.10
2018-09-22T21:57:10.041Z,0.50
2018-09-22T21:59:38.800Z,0.10
2018-09-22T22:02:07.401Z,0.10
2018-09-22T22:04:36.342Z,0.23
2018-09-22T22:07:05.177Z,0.10
2018-09-22T22:09:33.899Z,0.10
2018-09-22T22:12:02.440Z,0.23
2018-09-22T22:14:30.991Z,0.40
2018-09-22T22:16:59.487Z,0.20
2018-09-22T22:19:28.197Z,0.10
2018-09-22T22:21:56.864Z,0.10
2018-09-22T22:24:25.469Z,0.10
2018-09-22T22:26:54.002Z,0.10
2018-09-22T22:29:22.608Z,0.20
2018-09-22T22:31:51.200Z,0.20
2018-09-22T22:34:19.740Z,0.10
2018-09-22T22:36:48.283Z,0.37
2018-09-22T22:39:16.833Z,0.10
2018-09-22T22:41:45.527Z,0.10
2018-09-22T22:44:14.381Z,0.10
2018-09-22T22:46:43.031Z,0.10
2018-09-22T22:49:11.760Z,0.10
2018-09-22T22:51:40.401Z,0.10
2018-09-22T22:54:08.988Z,0.27
2018-09-22T22:56:37.556Z,0.10
2018-09-22T22:59:06.193Z,0.10
2018-09-22T23:01:34.730Z,0.10
2018-09-22T23:04:03.277Z,0.10
2018-09-22T23:06:32.068Z,0.10
2018-09-22T23:09:00.576Z,0.20
2018-09-22T23:11:31.382Z,0.10
2018-09-22T23:14:00.644Z,0.10
2018-09-22T23:16:29.590Z,0.10
2018-09-22T23:18:58.600Z,0.10
2018-09-22T23:21:27.885Z,0.10
2018-09-22T23:23:56.552Z,1.50
2018-09-22T23:26:25.067Z,0.10
2018-09-22T23:28:54.065Z,0.10
2018-09-22T23:31:22.885Z,0.20
2018-09-22T23:33:51.739Z,0.10
2018-09-22T23:36:20.313Z,0.20
2018-09-22T23:38:48.881Z,0.10
2018-09-22T23:41:17.469Z,0.10
2018-09-22T23:43:46.258Z,0.10
2018-09-22T23:46:14.803Z,0.10
2018-09-22T23:48:43.609Z,0.40
2018-09-22T23:51:12.152Z,0.10
2018-09-22T23:53:40.771Z,0.10
2018-09-22T23:56:10.099Z,0.10
2018-09-22T23:58:39.159Z,0.10
